sensor_id;sensor_type;location;lat;lon;timestamp;pressure;altitude;pressure_sealevel;temperature;humidity
62942;BME280;49042;47.318;19.874;2023-03-20T00:01:02;100522.44;;;6.64;77.54
62942;BME280;49042;47.318;19.874;2023-03-20T00:04:03;100530.69;;;6.75;77.24
62942;BME280;49042;47.318;19.874;2023-03-20T00:07:05;100517.97;;;6.61;78.58
62942;BME280;49042;47.318;19.874;2023-03-20T00:10:11;100510.75;;;6.37;80.32
62942;BME280;49042;47.318;19.874;2023-03-20T00:13:17;100518.00;;;6.26;80.98
62942;BME280;49042;47.318;19.874;2023-03-20T00:16:26;100506.41;;;6.55;79.46
62942;BME280;49042;47.318;19.874;2023-03-20T00:19:28;100507.06;;;6.50;80.00
62942;BME280;49042;47.318;19.874;2023-03-20T00:22:31;100496.69;;;6.50;80.45
62942;BME280;49042;47.318;19.874;2023-03-20T00:25:33;100495.44;;;6.79;78.81
62942;BME280;49042;47.318;19.874;2023-03-20T00:28:40;100494.56;;;6.78;77.70
62942;BME280;49042;47.318;19.874;2023-03-20T00:31:42;100495.28;;;6.94;76.72
62942;BME280;49042;47.318;19.874;2023-03-20T00:34:44;100492.25;;;6.84;77.48
62942;BME280;49042;47.318;19.874;2023-03-20T00:37:46;100488.28;;;6.73;77.78
62942;BME280;49042;47.318;19.874;2023-03-20T00:40:47;100493.72;;;6.98;76.76
62942;BME280;49042;47.318;19.874;2023-03-20T00:43:52;100493.06;;;6.83;77.17
62942;BME280;49042;47.318;19.874;2023-03-20T00:47:00;100481.94;;;6.86;77.54
62942;BME280;49042;47.318;19.874;2023-03-20T00:50:09;100486.25;;;6.85;77.77
62942;BME280;49042;47.318;19.874;2023-03-20T00:53:15;100487.53;;;7.14;77.13
62942;BME280;49042;47.318;19.874;2023-03-20T00:56:32;100477.53;;;7.03;77.46
62942;BME280;49042;47.318;19.874;2023-03-20T00:59:38;100481.78;;;7.01;77.58
62942;BME280;49042;47.318;19.874;2023-03-20T01:02:41;100484.66;;;7.07;77.46
62942;BME280;49042;47.318;19.874;2023-03-20T01:05:44;100479.41;;;7.06;77.68
62942;BME280;49042;47.318;19.874;2023-03-20T01:08:46;100476.47;;;6.98;77.94
62942;BME280;49042;47.318;19.874;2023-03-20T01:11:49;100472.62;;;7.48;75.86
62942;BME280;49042;47.318;19.874;2023-03-20T01:14:54;100469.72;;;7.22;76.72
62942;BME280;49042;47.318;19.874;2023-03-20T01:17:57;100466.72;;;7.12;76.61
62942;BME280;49042;47.318;19.874;2023-03-20T01:20:59;100467.41;;;7.28;75.67
62942;BME280;49042;47.318;19.874;2023-03-20T01:24:00;100462.84;;;7.62;74.61
62942;BME280;49042;47.318;19.874;2023-03-20T01:27:04;100457.59;;;7.82;73.29
62942;BME280;49042;47.318;19.874;2023-03-20T01:30:19;100457.09;;;7.30;76.07
62942;BME280;49042;47.318;19.874;2023-03-20T01:33:22;100464.88;;;7.30;75.76
62942;BME280;49042;47.318;19.874;2023-03-20T01:36:26;100456.56;;;7.17;77.03
62942;BME280;49042;47.318;19.874;2023-03-20T01:39:32;100475.13;;;7.06;77.46
62942;BME280;49042;47.318;19.874;2023-03-20T01:42:34;100481.37;;;6.92;79.49
62942;BME280;49042;47.318;19.874;2023-03-20T01:45:37;100490.63;;;7.25;76.95
62942;BME280;49042;47.318;19.874;2023-03-20T01:51:51;100468.41;;;7.71;75.13
62942;BME280;49042;47.318;19.874;2023-03-20T01:54:52;100470.22;;;7.94;74.14
62942;BME280;49042;47.318;19.874;2023-03-20T01:57:56;100481.88;;;7.43;76.13
62942;BME280;49042;47.318;19.874;2023-03-20T02:01:01;100479.91;;;7.37;76.78
62942;BME280;49042;47.318;19.874;2023-03-20T02:04:04;100479.94;;;7.78;75.42
62942;BME280;49042;47.318;19.874;2023-03-20T02:07:07;100462.78;;;8.02;73.97
62942;BME280;49042;47.318;19.874;2023-03-20T02:10:13;100464.41;;;8.21;72.97
62942;BME280;49042;47.318;19.874;2023-03-20T02:13:17;100460.44;;;8.30;72.20
62942;BME280;49042;47.318;19.874;2023-03-20T02:16:18;100464.28;;;8.18;72.29
62942;BME280;49042;47.318;19.874;2023-03-20T02:19:53;100459.28;;;8.23;71.85
62942;BME280;49042;47.318;19.874;2023-03-20T02:27:12;100466.00;;;8.18;72.50
62942;BME280;49042;47.318;19.874;2023-03-20T02:40:05;100457.09;;;8.34;71.60
62942;BME280;49042;47.318;19.874;2023-03-20T02:43:29;100449.38;;;8.35;71.02
62942;BME280;49042;47.318;19.874;2023-03-20T03:02:59;100435.75;;;7.77;71.17
62942;BME280;49042;47.318;19.874;2023-03-20T03:06:10;100437.53;;;7.99;70.98
62942;BME280;49042;47.318;19.874;2023-03-20T03:09:19;100433.56;;;7.45;72.29
62942;BME280;49042;47.318;19.874;2023-03-20T03:12:28;100439.25;;;7.57;73.19
62942;BME280;49042;47.318;19.874;2023-03-20T03:15:41;100441.25;;;7.63;73.41
62942;BME280;49042;47.318;19.874;2023-03-20T03:18:44;100438.66;;;7.85;73.00
62942;BME280;49042;47.318;19.874;2023-03-20T03:21:47;100442.16;;;7.85;73.13
62942;BME280;49042;47.318;19.874;2023-03-20T03:24:51;100440.13;;;7.99;72.05
62942;BME280;49042;47.318;19.874;2023-03-20T03:28:04;100444.75;;;7.85;72.79
62942;BME280;49042;47.318;19.874;2023-03-20T03:31:11;100431.31;;;7.96;72.95
62942;BME280;49042;47.318;19.874;2023-03-20T03:34:16;100428.25;;;8.05;72.62
62942;BME280;49042;47.318;19.874;2023-03-20T03:44:25;100426.25;;;7.99;73.12
62942;BME280;49042;47.318;19.874;2023-03-20T03:47:31;100421.94;;;7.99;72.94
62942;BME280;49042;47.318;19.874;2023-03-20T03:50:56;100434.19;;;8.02;73.22
62942;BME280;49042;47.318;19.874;2023-03-20T03:54:07;100435.00;;;8.01;73.12
62942;BME280;49042;47.318;19.874;2023-03-20T03:57:09;100429.94;;;8.04;73.23
62942;BME280;49042;47.318;19.874;2023-03-20T04:00:16;100435.88;;;7.80;73.69
62942;BME280;49042;47.318;19.874;2023-03-20T04:03:23;100438.91;;;7.49;76.21
62942;BME280;49042;47.318;19.874;2023-03-20T04:06:28;100438.06;;;7.49;75.69
62942;BME280;49042;47.318;19.874;2023-03-20T04:09:30;100432.16;;;7.73;74.99
62942;BME280;49042;47.318;19.874;2023-03-20T04:12:37;100436.22;;;7.88;74.47
62942;BME280;49042;47.318;19.874;2023-03-20T04:15:39;100443.16;;;7.47;75.88
62942;BME280;49042;47.318;19.874;2023-03-20T04:18:41;100435.44;;;7.29;77.08
62942;BME280;49042;47.318;19.874;2023-03-20T04:21:43;100441.09;;;7.80;75.08
62942;BME280;49042;47.318;19.874;2023-03-20T04:24:46;100441.41;;;7.88;74.30
62942;BME280;49042;47.318;19.874;2023-03-20T04:27:47;100434.56;;;7.90;74.17
62942;BME280;49042;47.318;19.874;2023-03-20T04:30:56;100427.72;;;7.92;74.08
62942;BME280;49042;47.318;19.874;2023-03-20T04:33:58;100436.66;;;7.77;75.05
62942;BME280;49042;47.318;19.874;2023-03-20T04:37:00;100432.66;;;7.86;74.19
62942;BME280;49042;47.318;19.874;2023-03-20T04:40:03;100434.44;;;7.87;74.25
62942;BME280;49042;47.318;19.874;2023-03-20T04:43:05;100435.62;;;7.74;74.52
62942;BME280;49042;47.318;19.874;2023-03-20T04:46:07;100448.06;;;6.63;81.23
62942;BME280;49042;47.318;19.874;2023-03-20T04:49:08;100448.84;;;6.80;81.42
62942;BME280;49042;47.318;19.874;2023-03-20T04:52:10;100452.47;;;7.22;79.05
62942;BME280;49042;47.318;19.874;2023-03-20T04:55:12;100450.63;;;7.20;78.75
62942;BME280;49042;47.318;19.874;2023-03-20T04:58:14;100455.69;;;6.78;80.93
62942;BME280;49042;47.318;19.874;2023-03-20T05:01:16;100459.38;;;6.83;82.24
62942;BME280;49042;47.318;19.874;2023-03-20T05:04:17;100465.59;;;7.07;80.78
62942;BME280;49042;47.318;19.874;2023-03-20T05:07:19;100465.34;;;7.01;81.38
62942;BME280;49042;47.318;19.874;2023-03-20T05:10:21;100473.00;;;6.24;85.49
62942;BME280;49042;47.318;19.874;2023-03-20T05:13:23;100467.75;;;6.59;84.61
62942;BME280;49042;47.318;19.874;2023-03-20T05:16:25;100473.88;;;6.80;83.10
62942;BME280;49042;47.318;19.874;2023-03-20T05:19:27;100485.81;;;6.21;86.47
62942;BME280;49042;47.318;19.874;2023-03-20T05:22:28;100478.72;;;6.72;84.29
62942;BME280;49042;47.318;19.874;2023-03-20T05:25:30;100480.13;;;7.03;82.33
62942;BME280;49042;47.318;19.874;2023-03-20T05:28:32;100485.66;;;6.91;82.79
62942;BME280;49042;47.318;19.874;2023-03-20T05:31:33;100489.44;;;6.98;82.31
62942;BME280;49042;47.318;19.874;2023-03-20T05:34:35;100485.50;;;7.06;81.65
62942;BME280;49042;47.318;19.874;2023-03-20T05:37:38;100486.47;;;6.90;81.83
62942;BME280;49042;47.318;19.874;2023-03-20T05:40:39;100484.28;;;6.25;85.61
62942;BME280;49042;47.318;19.874;2023-03-20T05:43:44;100486.94;;;6.63;83.98
62942;BME280;49042;47.318;19.874;2023-03-20T05:46:46;100487.91;;;7.03;82.39
62942;BME280;49042;47.318;19.874;2023-03-20T05:49:47;100487.75;;;6.62;85.18
62942;BME280;49042;47.318;19.874;2023-03-20T05:52:49;100482.41;;;6.77;84.83
62942;BME280;49042;47.318;19.874;2023-03-20T05:55:51;100486.19;;;7.22;81.83
62942;BME280;49042;47.318;19.874;2023-03-20T05:58:52;100488.00;;;7.85;78.54
62942;BME280;49042;47.318;19.874;2023-03-20T06:01:54;100481.97;;;8.06;76.83
62942;BME280;49042;47.318;19.874;2023-03-20T06:04:56;100486.00;;;8.20;75.50
62942;BME280;49042;47.318;19.874;2023-03-20T06:07:57;100487.03;;;8.45;74.23
62942;BME280;49042;47.318;19.874;2023-03-20T06:10:59;100489.62;;;8.67;72.96
62942;BME280;49042;47.318;19.874;2023-03-20T06:14:01;100487.66;;;8.83;71.67
62942;BME280;49042;47.318;19.874;2023-03-20T06:17:03;100489.81;;;8.95;70.52
62942;BME280;49042;47.318;19.874;2023-03-20T06:20:05;100485.72;;;9.25;69.25
62942;BME280;49042;47.318;19.874;2023-03-20T06:23:07;100496.44;;;9.57;67.84
62942;BME280;49042;47.318;19.874;2023-03-20T06:26:08;100490.22;;;9.29;65.85
62942;BME280;49042;47.318;19.874;2023-03-20T06:29:10;100493.34;;;9.43;66.36
62942;BME280;49042;47.318;19.874;2023-03-20T06:32:12;100492.72;;;10.01;63.87
62942;BME280;49042;47.318;19.874;2023-03-20T06:35:15;100489.44;;;9.31;66.78
62942;BME280;49042;47.318;19.874;2023-03-20T06:38:18;100487.06;;;9.38;68.27
62942;BME280;49042;47.318;19.874;2023-03-20T06:41:20;100488.22;;;9.21;67.17
62942;BME280;49042;47.318;19.874;2023-03-20T06:44:34;100497.47;;;9.87;63.47
62942;BME280;49042;47.318;19.874;2023-03-20T06:47:36;100499.66;;;10.53;60.96
62942;BME280;49042;47.318;19.874;2023-03-20T06:50:38;100497.41;;;10.94;58.66
62942;BME280;49042;47.318;19.874;2023-03-20T06:53:40;100498.69;;;10.51;60.07
62942;BME280;49042;47.318;19.874;2023-03-20T06:56:44;100499.19;;;9.87;63.60
62942;BME280;49042;47.318;19.874;2023-03-20T06:59:46;100498.59;;;10.48;62.16
62942;BME280;49042;47.318;19.874;2023-03-20T07:02:48;100498.28;;;10.65;60.15
62942;BME280;49042;47.318;19.874;2023-03-20T07:05:49;100506.72;;;11.13;57.12
62942;BME280;49042;47.318;19.874;2023-03-20T07:08:51;100503.28;;;11.46;55.88
62942;BME280;49042;47.318;19.874;2023-03-20T07:11:53;100502.31;;;12.81;51.75
62942;BME280;49042;47.318;19.874;2023-03-20T07:14:55;100507.22;;;13.05;49.15
62942;BME280;49042;47.318;19.874;2023-03-20T07:17:57;100512.56;;;13.99;46.30
62942;BME280;49042;47.318;19.874;2023-03-20T07:21:01;100508.69;;;14.85;44.70
62942;BME280;49042;47.318;19.874;2023-03-20T07:24:03;100513.97;;;16.45;39.64
62942;BME280;49042;47.318;19.874;2023-03-20T07:27:07;100510.03;;;17.16;38.28
62942;BME280;49042;47.318;19.874;2023-03-20T07:30:09;100502.88;;;16.93;38.04
62942;BME280;49042;47.318;19.874;2023-03-20T07:33:11;100518.47;;;14.94;41.87
62942;BME280;49042;47.318;19.874;2023-03-20T07:36:13;100528.09;;;14.38;44.27
62942;BME280;49042;47.318;19.874;2023-03-20T07:39:14;100524.31;;;14.21;44.46
62942;BME280;49042;47.318;19.874;2023-03-20T07:42:17;100526.94;;;14.77;43.06
62942;BME280;49042;47.318;19.874;2023-03-20T07:45:18;100533.91;;;14.75;42.91
62942;BME280;49042;47.318;19.874;2023-03-20T07:48:20;100535.78;;;14.83;43.06
62942;BME280;49042;47.318;19.874;2023-03-20T07:51:23;100541.13;;;13.83;45.55
62942;BME280;49042;47.318;19.874;2023-03-20T07:54:24;100534.12;;;13.40;46.99
62942;BME280;49042;47.318;19.874;2023-03-20T07:57:26;100534.25;;;13.46;46.87
62942;BME280;49042;47.318;19.874;2023-03-20T08:00:28;100530.09;;;13.58;45.99
62942;BME280;49042;47.318;19.874;2023-03-20T08:03:30;100526.91;;;13.30;46.75
62942;BME280;49042;47.318;19.874;2023-03-20T08:06:32;100533.31;;;13.86;44.87
62942;BME280;49042;47.318;19.874;2023-03-20T08:09:35;100523.12;;;14.03;44.28
62942;BME280;49042;47.318;19.874;2023-03-20T08:12:36;100523.69;;;14.37;43.65
62942;BME280;49042;47.318;19.874;2023-03-20T08:15:38;100528.59;;;14.69;43.22
62942;BME280;49042;47.318;19.874;2023-03-20T08:18:40;100529.25;;;15.90;40.92
62942;BME280;49042;47.318;19.874;2023-03-20T08:21:42;100531.09;;;15.99;40.63
62942;BME280;49042;47.318;19.874;2023-03-20T08:24:44;100533.94;;;16.19;39.67
62942;BME280;49042;47.318;19.874;2023-03-20T08:27:47;100525.31;;;16.36;39.00
62942;BME280;49042;47.318;19.874;2023-03-20T08:30:48;100527.28;;;15.70;40.53
62942;BME280;49042;47.318;19.874;2023-03-20T08:33:50;100522.09;;;15.78;40.28
62942;BME280;49042;47.318;19.874;2023-03-20T08:36:52;100526.31;;;16.52;39.27
62942;BME280;49042;47.318;19.874;2023-03-20T08:39:54;100532.19;;;17.58;37.03
62942;BME280;49042;47.318;19.874;2023-03-20T08:42:56;100527.88;;;17.90;36.20
62942;BME280;49042;47.318;19.874;2023-03-20T08:45:57;100527.59;;;17.19;37.02
62942;BME280;49042;47.318;19.874;2023-03-20T08:48:59;100529.34;;;17.18;37.28
62942;BME280;49042;47.318;19.874;2023-03-20T08:52:01;100522.75;;;21.26;31.29
62942;BME280;49042;47.318;19.874;2023-03-20T08:55:03;100525.88;;;23.20;27.60
62942;BME280;49042;47.318;19.874;2023-03-20T08:58:05;100529.00;;;23.39;27.12
62942;BME280;49042;47.318;19.874;2023-03-20T09:01:08;100524.31;;;23.09;27.69
62942;BME280;49042;47.318;19.874;2023-03-20T09:04:12;100519.75;;;22.68;27.91
62942;BME280;49042;47.318;19.874;2023-03-20T09:07:13;100526.09;;;22.60;27.88
62942;BME280;49042;47.318;19.874;2023-03-20T09:10:16;100536.38;;;19.77;31.61
62942;BME280;49042;47.318;19.874;2023-03-20T09:13:18;100530.56;;;18.38;33.73
62942;BME280;49042;47.318;19.874;2023-03-20T09:16:28;100543.75;;;18.18;34.98
62942;BME280;49042;47.318;19.874;2023-03-20T09:19:29;100529.09;;;20.12;31.82
62942;BME280;49042;47.318;19.874;2023-03-20T09:22:32;100530.53;;;18.89;33.44
62942;BME280;49042;47.318;19.874;2023-03-20T09:25:34;100537.50;;;17.73;35.24
62942;BME280;49042;47.318;19.874;2023-03-20T09:28:36;100530.50;;;17.80;35.59
62942;BME280;49042;47.318;19.874;2023-03-20T09:31:37;100532.25;;;17.92;35.37
62942;BME280;49042;47.318;19.874;2023-03-20T09:34:39;100533.56;;;20.06;31.31
62942;BME280;49042;47.318;19.874;2023-03-20T09:37:41;100530.41;;;22.14;28.70
62942;BME280;49042;47.318;19.874;2023-03-20T09:40:53;100529.28;;;21.69;29.02
62942;BME280;49042;47.318;19.874;2023-03-20T09:50:36;100525.44;;;24.57;24.51
62942;BME280;49042;47.318;19.874;2023-03-20T09:53:42;100527.06;;;24.27;25.15
62942;BME280;49042;47.318;19.874;2023-03-20T09:56:45;100536.59;;;23.17;26.27
62942;BME280;49042;47.318;19.874;2023-03-20T09:59:47;100528.84;;;22.01;27.89
62942;BME280;49042;47.318;19.874;2023-03-20T10:02:55;100526.44;;;22.90;26.62
62942;BME280;49042;47.318;19.874;2023-03-20T10:06:02;100534.91;;;20.59;28.83
62942;BME280;49042;47.318;19.874;2023-03-20T10:09:20;100539.09;;;19.66;30.76
62942;BME280;49042;47.318;19.874;2023-03-20T10:12:42;100523.22;;;20.79;29.19
62942;BME280;49042;47.318;19.874;2023-03-20T10:15:51;100521.84;;;20.40;30.51
62942;BME280;49042;47.318;19.874;2023-03-20T10:25:39;100510.19;;;21.39;28.85
62942;BME280;49042;47.318;19.874;2023-03-20T10:29:06;100516.56;;;20.37;30.29
62942;BME280;49042;47.318;19.874;2023-03-20T10:33:09;100519.94;;;18.95;32.25
62942;BME280;49042;47.318;19.874;2023-03-20T10:42:29;100511.81;;;19.53;31.70
62942;BME280;49042;47.318;19.874;2023-03-20T10:45:45;100506.00;;;20.32;30.34
62942;BME280;49042;47.318;19.874;2023-03-20T10:49:23;100509.25;;;19.30;30.55
62942;BME280;49042;47.318;19.874;2023-03-20T10:52:31;100511.03;;;19.34;30.89
62942;BME280;49042;47.318;19.874;2023-03-20T10:55:37;100501.31;;;19.39;34.86
62942;BME280;49042;47.318;19.874;2023-03-20T10:58:43;100499.09;;;20.17;29.92
62942;BME280;49042;47.318;19.874;2023-03-20T11:01:47;100500.00;;;20.05;31.72
62942;BME280;49042;47.318;19.874;2023-03-20T11:04:49;100500.16;;;19.89;32.26
62942;BME280;49042;47.318;19.874;2023-03-20T11:08:00;100497.59;;;19.70;34.02
62942;BME280;49042;47.318;19.874;2023-03-20T11:11:03;100498.44;;;19.75;33.42
62942;BME280;49042;47.318;19.874;2023-03-20T11:14:15;100499.47;;;19.54;31.88
62942;BME280;49042;47.318;19.874;2023-03-20T11:17:19;100502.31;;;18.99;32.75
62942;BME280;49042;47.318;19.874;2023-03-20T11:20:21;100483.75;;;19.25;33.09
62942;BME280;49042;47.318;19.874;2023-03-20T11:23:28;100476.41;;;19.76;31.97
62942;BME280;49042;47.318;19.874;2023-03-20T11:26:35;100471.88;;;19.91;33.03
62942;BME280;49042;47.318;19.874;2023-03-20T11:29:40;100480.19;;;19.30;32.28
62942;BME280;49042;47.318;19.874;2023-03-20T11:32:47;100475.72;;;19.43;32.29
62942;BME280;49042;47.318;19.874;2023-03-20T11:35:52;100468.69;;;19.42;32.07
62942;BME280;49042;47.318;19.874;2023-03-20T11:39:22;100478.66;;;18.37;33.64
62942;BME280;49042;47.318;19.874;2023-03-20T11:42:24;100464.81;;;19.92;33.77
62942;BME280;49042;47.318;19.874;2023-03-20T11:45:33;100463.22;;;19.70;35.87
62942;BME280;49042;47.318;19.874;2023-03-20T11:48:41;100467.84;;;19.30;32.33
62942;BME280;49042;47.318;19.874;2023-03-20T11:51:44;100458.16;;;19.32;31.60
62942;BME280;49042;47.318;19.874;2023-03-20T11:54:49;100452.34;;;20.09;33.38
62942;BME280;49042;47.318;19.874;2023-03-20T11:57:55;100450.97;;;19.56;31.78
62942;BME280;49042;47.318;19.874;2023-03-20T12:01:00;100446.25;;;19.99;32.14
62942;BME280;49042;47.318;19.874;2023-03-20T12:04:09;100443.13;;;19.39;31.56
62942;BME280;49042;47.318;19.874;2023-03-20T12:07:15;100438.69;;;19.41;32.06
62942;BME280;49042;47.318;19.874;2023-03-20T12:10:20;100437.97;;;19.08;31.95
62942;BME280;49042;47.318;19.874;2023-03-20T12:13:29;100428.22;;;19.24;34.01
62942;BME280;49042;47.318;19.874;2023-03-20T12:16:35;100424.34;;;19.82;30.93
62942;BME280;49042;47.318;19.874;2023-03-20T12:19:39;100425.53;;;19.32;30.58
62942;BME280;49042;47.318;19.874;2023-03-20T12:22:49;100421.41;;;18.60;32.18
62942;BME280;49042;47.318;19.874;2023-03-20T12:26:12;100422.06;;;19.22;31.92
62942;BME280;49042;47.318;19.874;2023-03-20T12:36:35;100424.69;;;19.28;30.43
62942;BME280;49042;47.318;19.874;2023-03-20T12:39:42;100418.34;;;19.54;31.08
62942;BME280;49042;47.318;19.874;2023-03-20T12:43:04;100413.53;;;20.04;30.76
62942;BME280;49042;47.318;19.874;2023-03-20T12:46:24;100420.31;;;19.08;30.99
62942;BME280;49042;47.318;19.874;2023-03-20T13:19:25;100395.06;;;18.11;32.00
62942;BME280;49042;47.318;19.874;2023-03-20T13:22:44;100402.03;;;18.59;31.91
62942;BME280;49042;47.318;19.874;2023-03-20T13:29:18;100392.41;;;18.39;31.82
62942;BME280;49042;47.318;19.874;2023-03-20T13:38:51;100384.50;;;18.30;32.02
62942;BME280;49042;47.318;19.874;2023-03-20T13:41:54;100388.91;;;18.28;31.55
62942;BME280;49042;47.318;19.874;2023-03-20T13:45:00;100388.00;;;18.35;31.44
62942;BME280;49042;47.318;19.874;2023-03-20T13:52:21;100385.16;;;20.23;29.39
62942;BME280;49042;47.318;19.874;2023-03-20T14:01:24;100382.56;;;18.84;30.69
62942;BME280;49042;47.318;19.874;2023-03-20T14:04:30;100372.78;;;19.03;30.23
62942;BME280;49042;47.318;19.874;2023-03-20T14:07:36;100373.16;;;19.86;29.23
62942;BME280;49042;47.318;19.874;2023-03-20T14:10:38;100376.00;;;19.56;29.49
62942;BME280;49042;47.318;19.874;2023-03-20T14:13:44;100372.63;;;19.40;29.76
62942;BME280;49042;47.318;19.874;2023-03-20T14:16:47;100371.19;;;20.07;29.81
62942;BME280;49042;47.318;19.874;2023-03-20T14:19:49;100375.44;;;19.02;30.33
62942;BME280;49042;47.318;19.874;2023-03-20T14:22:51;100361.97;;;19.46;30.27
62942;BME280;49042;47.318;19.874;2023-03-20T14:25:53;100372.03;;;18.70;30.40
62942;BME280;49042;47.318;19.874;2023-03-20T14:28:59;100364.25;;;18.02;31.27
62942;BME280;49042;47.318;19.874;2023-03-20T14:32:04;100362.53;;;17.79;31.47
62942;BME280;49042;47.318;19.874;2023-03-20T14:38:19;100365.16;;;17.88;31.65
62942;BME280;49042;47.318;19.874;2023-03-20T14:44:38;100361.66;;;17.83;31.42
62942;BME280;49042;47.318;19.874;2023-03-20T14:57:28;100355.41;;;17.15;32.82
62942;BME280;49042;47.318;19.874;2023-03-20T15:00:43;100358.03;;;17.09;32.70
62942;BME280;49042;47.318;19.874;2023-03-20T15:03:48;100351.06;;;17.20;32.54
62942;BME280;49042;47.318;19.874;2023-03-20T15:06:51;100356.34;;;17.23;33.33
62942;BME280;49042;47.318;19.874;2023-03-20T15:09:55;100348.47;;;17.34;32.94
62942;BME280;49042;47.318;19.874;2023-03-20T15:12:59;100353.75;;;17.49;32.50
62942;BME280;49042;47.318;19.874;2023-03-20T15:16:05;100348.28;;;16.83;33.93
62942;BME280;49042;47.318;19.874;2023-03-20T15:19:13;100352.63;;;16.68;33.55
62942;BME280;49042;47.318;19.874;2023-03-20T15:22:18;100356.16;;;16.70;34.50
62942;BME280;49042;47.318;19.874;2023-03-20T15:25:21;100357.97;;;16.87;33.83
62942;BME280;49042;47.318;19.874;2023-03-20T15:28:24;100354.50;;;17.00;34.16
62942;BME280;49042;47.318;19.874;2023-03-20T15:31:27;100364.09;;;16.81;35.04
62942;BME280;49042;47.318;19.874;2023-03-20T15:34:31;100363.13;;;16.60;35.24
62942;BME280;49042;47.318;19.874;2023-03-20T15:37:33;100365.72;;;16.49;35.00
62942;BME280;49042;47.318;19.874;2023-03-20T15:40:37;100355.13;;;16.40;34.50
62942;BME280;49042;47.318;19.874;2023-03-20T15:43:51;100354.16;;;16.23;35.25
62942;BME280;49042;47.318;19.874;2023-03-20T15:47:03;100358.47;;;16.15;35.62
62942;BME280;49042;47.318;19.874;2023-03-20T15:50:11;100359.25;;;16.03;36.28
62942;BME280;49042;47.318;19.874;2023-03-20T15:53:14;100366.19;;;15.90;36.51
62942;BME280;49042;47.318;19.874;2023-03-20T15:56:17;100357.34;;;15.78;37.05
62942;BME280;49042;47.318;19.874;2023-03-20T15:59:21;100360.75;;;15.68;37.95
62942;BME280;49042;47.318;19.874;2023-03-20T16:02:25;100368.53;;;15.58;37.84
62942;BME280;49042;47.318;19.874;2023-03-20T16:05:28;100375.56;;;15.58;37.72
62942;BME280;49042;47.318;19.874;2023-03-20T16:08:31;100366.66;;;15.43;38.15
62942;BME280;49042;47.318;19.874;2023-03-20T16:11:37;100373.59;;;15.36;38.58
62942;BME280;49042;47.318;19.874;2023-03-20T16:14:39;100377.84;;;15.23;38.60
62942;BME280;49042;47.318;19.874;2023-03-20T16:17:41;100386.47;;;15.13;38.96
62942;BME280;49042;47.318;19.874;2023-03-20T16:20:46;100380.28;;;15.06;38.99
62942;BME280;49042;47.318;19.874;2023-03-20T16:23:51;100385.47;;;14.99;39.54
62942;BME280;49042;47.318;19.874;2023-03-20T16:26:53;100382.75;;;14.90;39.72
62942;BME280;49042;47.318;19.874;2023-03-20T16:29:56;100388.84;;;14.89;40.06
62942;BME280;49042;47.318;19.874;2023-03-20T16:32:59;100385.16;;;14.76;40.30
62942;BME280;49042;47.318;19.874;2023-03-20T16:36:01;100386.84;;;14.69;40.42
62942;BME280;49042;47.318;19.874;2023-03-20T16:39:21;100395.41;;;14.57;40.87
62942;BME280;49042;47.318;19.874;2023-03-20T16:42:24;100392.75;;;14.54;41.25
62942;BME280;49042;47.318;19.874;2023-03-20T16:45:29;100397.84;;;14.43;41.37
62942;BME280;49042;47.318;19.874;2023-03-20T16:48:32;100402.13;;;14.36;41.11
62942;BME280;49042;47.318;19.874;2023-03-20T16:51:34;100403.69;;;14.24;41.43
62942;BME280;49042;47.318;19.874;2023-03-20T16:54:36;100413.25;;;14.19;41.85
62942;BME280;49042;47.318;19.874;2023-03-20T16:57:38;100404.44;;;14.16;42.03
62942;BME280;49042;47.318;19.874;2023-03-20T17:00:41;100403.59;;;14.17;42.63
62942;BME280;49042;47.318;19.874;2023-03-20T17:06:53;100405.81;;;13.91;43.41
62942;BME280;49042;47.318;19.874;2023-03-20T17:10:28;100409.44;;;14.00;43.24
62942;BME280;49042;47.318;19.874;2023-03-20T17:13:24;100413.53;;;13.84;44.15
62942;BME280;49042;47.318;19.874;2023-03-20T17:16:27;100413.91;;;13.57;44.39
62942;BME280;49042;47.318;19.874;2023-03-20T17:19:30;100411.66;;;13.76;44.51
62942;BME280;49042;47.318;19.874;2023-03-20T17:22:32;100414.44;;;13.84;43.94
62942;BME280;49042;47.318;19.874;2023-03-20T17:25:34;100414.81;;;13.58;44.52
62942;BME280;49042;47.318;19.874;2023-03-20T17:28:36;100414.06;;;13.62;44.61
62942;BME280;49042;47.318;19.874;2023-03-20T17:31:38;100409.69;;;13.63;44.61
62942;BME280;49042;47.318;19.874;2023-03-20T17:34:40;100416.16;;;13.35;45.79
62942;BME280;49042;47.318;19.874;2023-03-20T17:37:43;100413.28;;;13.23;46.25
62942;BME280;49042;47.318;19.874;2023-03-20T17:40:46;100418.34;;;13.13;46.86
62942;BME280;49042;47.318;19.874;2023-03-20T17:43:48;100417.56;;;13.17;46.92
62942;BME280;49042;47.318;19.874;2023-03-20T17:46:51;100417.41;;;13.10;47.35
62942;BME280;49042;47.318;19.874;2023-03-20T17:49:59;100416.78;;;12.78;48.58
62942;BME280;49042;47.318;19.874;2023-03-20T17:53:01;100413.09;;;12.70;48.74
62942;BME280;49042;47.318;19.874;2023-03-20T17:56:13;100419.56;;;12.46;49.44
62942;BME280;49042;47.318;19.874;2023-03-20T17:59:16;100416.28;;;12.56;48.92
62942;BME280;49042;47.318;19.874;2023-03-20T18:02:17;100420.37;;;12.45;49.49
62942;BME280;49042;47.318;19.874;2023-03-20T18:05:19;100410.69;;;12.40;49.83
62942;BME280;49042;47.318;19.874;2023-03-20T18:08:22;100416.22;;;12.16;51.01
62942;BME280;49042;47.318;19.874;2023-03-20T18:11:25;100417.25;;;12.23;51.03
62942;BME280;49042;47.318;19.874;2023-03-20T18:14:28;100410.97;;;12.14;51.55